sensor_id;sensor_type;location;lat;lon;timestamp;P1;durP1;ratioP1;P2;durP2;ratioP2
14191;SDS011;7177;48.572;7.838;2022-12-07T00:02:24;72.87;;;50.53;;
14191;SDS011;7177;48.572;7.838;2022-12-07T00:04:50;69.67;;;48.17;;
14191;SDS011;7177;48.572;7.838;2022-12-07T00:07:15;54.03;;;40.63;;
14191;SDS011;7177;48.572;7.838;2022-12-07T00:09:41;46.10;;;33.57;;
14191;SDS011;7177;48.572;7.838;2022-12-07T00:12:06;41.13;;;29.43;;
14191;SDS011;7177;48.572;7.838;2022-12-07T00:14:33;37.28;;;24.60;;
14191;SDS011;7177;48.572;7.838;2022-12-07T00:16:58;35.90;;;24.17;;
14191;SDS011;7177;48.572;7.838;2022-12-07T00:19:24;31.13;;;22.63;;
14191;SDS011;7177;48.572;7.838;2022-12-07T00:21:49;30.57;;;21.03;;
14191;SDS011;7177;48.572;7.838;2022-12-07T00:24:15;27.77;;;20.90;;
14191;SDS011;7177;48.572;7.838;2022-12-07T00:26:41;32.20;;;21.60;;
14191;SDS011;7177;48.572;7.838;2022-12-07T00:29:10;31.17;;;21.85;;
14191;SDS011;7177;48.572;7.838;2022-12-07T00:31:42;26.85;;;20.67;;
14191;SDS011;7177;48.572;7.838;2022-12-07T00:34:11;23.97;;;18.50;;
14191;SDS011;7177;48.572;7.838;2022-12-07T00:36:41;28.25;;;18.52;;
14191;SDS011;7177;48.572;7.838;2022-12-07T00:39:07;27.47;;;19.60;;
14191;SDS011;7177;48.572;7.838;2022-12-07T00:41:33;23.80;;;18.30;;
14191;SDS011;7177;48.572;7.838;2022-12-07T00:43:59;25.60;;;19.77;;
14191;SDS011;7177;48.572;7.838;2022-12-07T00:46:25;24.40;;;18.50;;
14191;SDS011;7177;48.572;7.838;2022-12-07T00:48:51;26.20;;;19.00;;
14191;SDS011;7177;48.572;7.838;2022-12-07T00:51:18;28.27;;;18.63;;
14191;SDS011;7177;48.572;7.838;2022-12-07T00:53:45;27.33;;;18.95;;
14191;SDS011;7177;48.572;7.838;2022-12-07T00:56:12;26.30;;;19.33;;
14191;SDS011;7177;48.572;7.838;2022-12-07T00:58:42;21.55;;;16.80;;
14191;SDS011;7177;48.572;7.838;2022-12-07T01:01:08;26.20;;;19.37;;
14191;SDS011;7177;48.572;7.838;2022-12-07T01:03:35;25.33;;;18.85;;
14191;SDS011;7177;48.572;7.838;2022-12-07T01:06:01;26.63;;;18.40;;
14191;SDS011;7177;48.572;7.838;2022-12-07T01:08:27;25.83;;;18.80;;
14191;SDS011;7177;48.572;7.838;2022-12-07T01:11:06;25.73;;;18.85;;
14191;SDS011;7177;48.572;7.838;2022-12-07T01:13:32;85.07;;;49.10;;
14191;SDS011;7177;48.572;7.838;2022-12-07T01:16:00;26.27;;;18.83;;
14191;SDS011;7177;48.572;7.838;2022-12-07T01:18:28;25.55;;;18.75;;
14191;SDS011;7177;48.572;7.838;2022-12-07T01:23:51;23.63;;;17.15;;
14191;SDS011;7177;48.572;7.838;2022-12-07T01:26:18;22.27;;;16.30;;
14191;SDS011;7177;48.572;7.838;2022-12-07T01:28:46;22.02;;;16.20;;
14191;SDS011;7177;48.572;7.838;2022-12-07T01:31:12;24.00;;;16.80;;
14191;SDS011;7177;48.572;7.838;2022-12-07T01:33:40;21.63;;;16.98;;
14191;SDS011;7177;48.572;7.838;2022-12-07T01:36:16;21.38;;;15.85;;
14191;SDS011;7177;48.572;7.838;2022-12-07T01:38:43;21.60;;;16.20;;
14191;SDS011;7177;48.572;7.838;2022-12-07T01:41:10;23.17;;;16.38;;
14191;SDS011;7177;48.572;7.838;2022-12-07T01:43:36;22.17;;;16.52;;
14191;SDS011;7177;48.572;7.838;2022-12-07T01:46:22;22.60;;;17.13;;
14191;SDS011;7177;48.572;7.838;2022-12-07T01:48:47;20.83;;;16.23;;
14191;SDS011;7177;48.572;7.838;2022-12-07T01:51:13;20.53;;;15.60;;
14191;SDS011;7177;48.572;7.838;2022-12-07T01:53:41;21.48;;;15.43;;
14191;SDS011;7177;48.572;7.838;2022-12-07T01:56:10;18.85;;;14.57;;
14191;SDS011;7177;48.572;7.838;2022-12-07T01:58:39;20.70;;;15.23;;
14191;SDS011;7177;48.572;7.838;2022-12-07T02:01:05;18.67;;;15.17;;
14191;SDS011;7177;48.572;7.838;2022-12-07T02:03:32;19.07;;;14.33;;
14191;SDS011;7177;48.572;7.838;2022-12-07T02:06:07;21.33;;;16.00;;
14191;SDS011;7177;48.572;7.838;2022-12-07T02:08:34;18.35;;;14.57;;
14191;SDS011;7177;48.572;7.838;2022-12-07T02:11:00;17.53;;;13.33;;
14191;SDS011;7177;48.572;7.838;2022-12-07T02:13:28;17.58;;;13.48;;
14191;SDS011;7177;48.572;7.838;2022-12-07T02:29:58;16.67;;;12.68;;
14191;SDS011;7177;48.572;7.838;2022-12-07T02:35:06;20.63;;;14.95;;
14191;SDS011;7177;48.572;7.838;2022-12-07T02:37:58;18.48;;;14.38;;
14191;SDS011;7177;48.572;7.838;2022-12-07T02:40:27;18.48;;;13.52;;
14191;SDS011;7177;48.572;7.838;2022-12-07T02:43:09;18.13;;;13.63;;
14191;SDS011;7177;48.572;7.838;2022-12-07T02:45:41;16.95;;;12.52;;
14191;SDS011;7177;48.572;7.838;2022-12-07T02:48:08;19.02;;;13.85;;
14191;SDS011;7177;48.572;7.838;2022-12-07T02:50:36;17.58;;;13.90;;
14191;SDS011;7177;48.572;7.838;2022-12-07T02:53:02;21.03;;;14.97;;
14191;SDS011;7177;48.572;7.838;2022-12-07T02:55:29;20.87;;;14.53;;
14191;SDS011;7177;48.572;7.838;2022-12-07T02:58:18;18.33;;;14.43;;
14191;SDS011;7177;48.572;7.838;2022-12-07T03:01:11;19.23;;;14.05;;
14191;SDS011;7177;48.572;7.838;2022-12-07T03:03:46;19.05;;;14.05;;
14191;SDS011;7177;48.572;7.838;2022-12-07T03:06:20;19.00;;;14.25;;
14191;SDS011;7177;48.572;7.838;2022-12-07T03:08:57;16.83;;;13.60;;
14191;SDS011;7177;48.572;7.838;2022-12-07T03:11:54;17.45;;;13.70;;
14191;SDS011;7177;48.572;7.838;2022-12-07T03:14:41;20.05;;;14.10;;
14191;SDS011;7177;48.572;7.838;2022-12-07T03:17:16;19.80;;;14.93;;
14191;SDS011;7177;48.572;7.838;2022-12-07T03:19:45;19.77;;;15.48;;
14191;SDS011;7177;48.572;7.838;2022-12-07T03:22:13;19.35;;;15.27;;
14191;SDS011;7177;48.572;7.838;2022-12-07T03:24:45;19.70;;;14.52;;
14191;SDS011;7177;48.572;7.838;2022-12-07T03:27:24;19.40;;;14.23;;
14191;SDS011;7177;48.572;7.838;2022-12-07T03:30:00;18.00;;;14.10;;
14191;SDS011;7177;48.572;7.838;2022-12-07T03:32:31;20.00;;;14.80;;
14191;SDS011;7177;48.572;7.838;2022-12-07T03:35:14;22.77;;;17.15;;
14191;SDS011;7177;48.572;7.838;2022-12-07T03:37:55;21.02;;;15.30;;
14191;SDS011;7177;48.572;7.838;2022-12-07T03:40:41;21.38;;;16.38;;
14191;SDS011;7177;48.572;7.838;2022-12-07T03:43:15;21.27;;;16.52;;
14191;SDS011;7177;48.572;7.838;2022-12-07T03:45:43;22.20;;;16.08;;
14191;SDS011;7177;48.572;7.838;2022-12-07T03:48:28;22.05;;;16.83;;
14191;SDS011;7177;48.572;7.838;2022-12-07T03:51:11;23.33;;;17.13;;
14191;SDS011;7177;48.572;7.838;2022-12-07T03:53:45;23.27;;;16.35;;
14191;SDS011;7177;48.572;7.838;2022-12-07T03:56:16;23.05;;;17.30;;
14191;SDS011;7177;48.572;7.838;2022-12-07T03:58:43;22.55;;;16.08;;
14191;SDS011;7177;48.572;7.838;2022-12-07T04:01:10;22.87;;;17.73;;
14191;SDS011;7177;48.572;7.838;2022-12-07T04:03:36;24.35;;;18.13;;
14191;SDS011;7177;48.572;7.838;2022-12-07T04:06:01;23.90;;;19.13;;
14191;SDS011;7177;48.572;7.838;2022-12-07T04:08:27;26.37;;;18.33;;
14191;SDS011;7177;48.572;7.838;2022-12-07T04:10:53;23.57;;;17.07;;
14191;SDS011;7177;48.572;7.838;2022-12-07T04:13:18;31.03;;;21.17;;
14191;SDS011;7177;48.572;7.838;2022-12-07T04:15:44;28.33;;;20.13;;
14191;SDS011;7177;48.572;7.838;2022-12-07T04:18:09;24.60;;;17.83;;
14191;SDS011;7177;48.572;7.838;2022-12-07T04:20:35;23.90;;;16.87;;
14191;SDS011;7177;48.572;7.838;2022-12-07T04:23:00;19.97;;;15.17;;
14191;SDS011;7177;48.572;7.838;2022-12-07T04:25:26;22.63;;;16.30;;
14191;SDS011;7177;48.572;7.838;2022-12-07T04:27:51;22.33;;;16.87;;
14191;SDS011;7177;48.572;7.838;2022-12-07T04:30:18;21.67;;;16.40;;
14191;SDS011;7177;48.572;7.838;2022-12-07T04:32:44;20.88;;;16.25;;
14191;SDS011;7177;48.572;7.838;2022-12-07T04:35:09;25.17;;;17.77;;
14191;SDS011;7177;48.572;7.838;2022-12-07T04:37:35;24.80;;;16.53;;
14191;SDS011;7177;48.572;7.838;2022-12-07T04:40:01;23.10;;;16.13;;
14191;SDS011;7177;48.572;7.838;2022-12-07T04:42:27;22.93;;;17.27;;
14191;SDS011;7177;48.572;7.838;2022-12-07T04:44:53;22.60;;;16.83;;
14191;SDS011;7177;48.572;7.838;2022-12-07T04:47:18;23.50;;;17.67;;
14191;SDS011;7177;48.572;7.838;2022-12-07T04:49:45;23.67;;;17.15;;
14191;SDS011;7177;48.572;7.838;2022-12-07T04:52:11;23.77;;;18.40;;
14191;SDS011;7177;48.572;7.838;2022-12-07T04:54:37;22.30;;;16.87;;
14191;SDS011;7177;48.572;7.838;2022-12-07T04:57:02;24.63;;;17.97;;
14191;SDS011;7177;48.572;7.838;2022-12-07T04:59:28;25.77;;;18.90;;
14191;SDS011;7177;48.572;7.838;2022-12-07T05:01:54;27.17;;;18.90;;
14191;SDS011;7177;48.572;7.838;2022-12-07T05:04:19;30.43;;;20.70;;
14191;SDS011;7177;48.572;7.838;2022-12-07T05:06:45;31.57;;;21.90;;
14191;SDS011;7177;48.572;7.838;2022-12-07T05:09:10;33.27;;;22.87;;
14191;SDS011;7177;48.572;7.838;2022-12-07T05:11:36;33.80;;;23.50;;
14191;SDS011;7177;48.572;7.838;2022-12-07T05:14:06;36.25;;;23.70;;
14191;SDS011;7177;48.572;7.838;2022-12-07T05:16:34;28.55;;;21.70;;
14191;SDS011;7177;48.572;7.838;2022-12-07T05:19:00;27.97;;;21.00;;
14191;SDS011;7177;48.572;7.838;2022-12-07T05:21:26;27.43;;;20.13;;
14191;SDS011;7177;48.572;7.838;2022-12-07T05:23:51;31.23;;;22.03;;
14191;SDS011;7177;48.572;7.838;2022-12-07T05:26:17;32.93;;;22.47;;
14191;SDS011;7177;48.572;7.838;2022-12-07T05:28:43;28.23;;;21.13;;
14191;SDS011;7177;48.572;7.838;2022-12-07T05:31:08;26.03;;;18.73;;
14191;SDS011;7177;48.572;7.838;2022-12-07T05:33:34;32.27;;;21.70;;
14191;SDS011;7177;48.572;7.838;2022-12-07T05:36:00;33.73;;;22.80;;
14191;SDS011;7177;48.572;7.838;2022-12-07T05:38:30;36.47;;;24.58;;
14191;SDS011;7177;48.572;7.838;2022-12-07T05:41:02;39.97;;;25.33;;
14191;SDS011;7177;48.572;7.838;2022-12-07T05:43:29;34.00;;;23.73;;
14191;SDS011;7177;48.572;7.838;2022-12-07T05:45:55;30.90;;;22.85;;
14191;SDS011;7177;48.572;7.838;2022-12-07T05:48:21;35.10;;;24.30;;
14191;SDS011;7177;48.572;7.838;2022-12-07T05:50:48;35.05;;;25.30;;
14191;SDS011;7177;48.572;7.838;2022-12-07T05:53:14;34.08;;;24.33;;
14191;SDS011;7177;48.572;7.838;2022-12-07T05:55:39;31.70;;;21.87;;
14191;SDS011;7177;48.572;7.838;2022-12-07T05:58:05;29.70;;;21.80;;
14191;SDS011;7177;48.572;7.838;2022-12-07T06:00:49;34.95;;;23.50;;
14191;SDS011;7177;48.572;7.838;2022-12-07T06:03:15;37.87;;;25.77;;
14191;SDS011;7177;48.572;7.838;2022-12-07T06:05:40;36.70;;;24.63;;
14191;SDS011;7177;48.572;7.838;2022-12-07T06:08:06;40.63;;;26.25;;
14191;SDS011;7177;48.572;7.838;2022-12-07T06:10:32;34.67;;;25.33;;
14191;SDS011;7177;48.572;7.838;2022-12-07T06:12:57;33.97;;;23.70;;
14191;SDS011;7177;48.572;7.838;2022-12-07T06:15:23;33.00;;;23.33;;
14191;SDS011;7177;48.572;7.838;2022-12-07T06:17:48;32.97;;;22.93;;
14191;SDS011;7177;48.572;7.838;2022-12-07T06:20:14;32.33;;;23.40;;
14191;SDS011;7177;48.572;7.838;2022-12-07T06:22:39;36.17;;;23.37;;
14191;SDS011;7177;48.572;7.838;2022-12-07T06:25:05;35.87;;;25.33;;
14191;SDS011;7177;48.572;7.838;2022-12-07T06:27:32;34.30;;;23.55;;
14191;SDS011;7177;48.572;7.838;2022-12-07T06:29:57;34.83;;;23.43;;
14191;SDS011;7177;48.572;7.838;2022-12-07T06:32:23;37.45;;;25.45;;
14191;SDS011;7177;48.572;7.838;2022-12-07T06:34:49;36.27;;;24.77;;
14191;SDS011;7177;48.572;7.838;2022-12-07T06:37:14;37.70;;;25.80;;
14191;SDS011;7177;48.572;7.838;2022-12-07T06:39:40;38.50;;;25.87;;
14191;SDS011;7177;48.572;7.838;2022-12-07T06:42:05;37.27;;;25.07;;
14191;SDS011;7177;48.572;7.838;2022-12-07T06:44:31;34.90;;;23.53;;
14191;SDS011;7177;48.572;7.838;2022-12-07T06:46:57;33.42;;;22.33;;
14191;SDS011;7177;48.572;7.838;2022-12-07T06:49:23;34.20;;;23.57;;
14191;SDS011;7177;48.572;7.838;2022-12-07T06:51:48;37.87;;;24.60;;
14191;SDS011;7177;48.572;7.838;2022-12-07T06:54:14;39.43;;;26.50;;
14191;SDS011;7177;48.572;7.838;2022-12-07T06:56:40;38.40;;;26.63;;
14191;SDS011;7177;48.572;7.838;2022-12-07T06:59:06;41.40;;;26.53;;
14191;SDS011;7177;48.572;7.838;2022-12-07T07:01:33;39.45;;;24.55;;
14191;SDS011;7177;48.572;7.838;2022-12-07T07:04:00;39.25;;;26.08;;
14191;SDS011;7177;48.572;7.838;2022-12-07T07:06:25;43.17;;;26.45;;
14191;SDS011;7177;48.572;7.838;2022-12-07T07:08:51;41.13;;;25.07;;
14191;SDS011;7177;48.572;7.838;2022-12-07T07:11:17;39.37;;;24.77;;
14191;SDS011;7177;48.572;7.838;2022-12-07T07:13:43;39.60;;;26.37;;
14191;SDS011;7177;48.572;7.838;2022-12-07T07:16:09;40.50;;;25.35;;
14191;SDS011;7177;48.572;7.838;2022-12-07T07:18:35;36.65;;;26.17;;
14191;SDS011;7177;48.572;7.838;2022-12-07T07:21:01;37.77;;;25.50;;
14191;SDS011;7177;48.572;7.838;2022-12-07T07:23:26;37.33;;;24.90;;
14191;SDS011;7177;48.572;7.838;2022-12-07T07:25:52;35.73;;;24.37;;
14191;SDS011;7177;48.572;7.838;2022-12-07T07:28:18;37.30;;;25.47;;
14191;SDS011;7177;48.572;7.838;2022-12-07T07:30:43;38.53;;;26.20;;
14191;SDS011;7177;48.572;7.838;2022-12-07T07:33:09;33.77;;;23.00;;
14191;SDS011;7177;48.572;7.838;2022-12-07T07:35:35;45.28;;;30.55;;
14191;SDS011;7177;48.572;7.838;2022-12-07T07:38:01;41.53;;;26.17;;
14191;SDS011;7177;48.572;7.838;2022-12-07T07:40:27;38.30;;;25.90;;
14191;SDS011;7177;48.572;7.838;2022-12-07T07:42:56;37.85;;;23.40;;
14191;SDS011;7177;48.572;7.838;2022-12-07T07:45:22;36.53;;;24.52;;
14191;SDS011;7177;48.572;7.838;2022-12-07T07:47:49;33.83;;;23.13;;
14191;SDS011;7177;48.572;7.838;2022-12-07T07:50:16;37.70;;;23.67;;
14191;SDS011;7177;48.572;7.838;2022-12-07T07:52:41;37.60;;;26.30;;
14191;SDS011;7177;48.572;7.838;2022-12-07T07:55:07;33.77;;;23.80;;
14191;SDS011;7177;48.572;7.838;2022-12-07T07:57:34;33.92;;;24.23;;
14191;SDS011;7177;48.572;7.838;2022-12-07T08:00:01;43.92;;;26.33;;
14191;SDS011;7177;48.572;7.838;2022-12-07T08:02:30;35.63;;;24.45;;
14191;SDS011;7177;48.572;7.838;2022-12-07T08:04:56;34.33;;;24.27;;
14191;SDS011;7177;48.572;7.838;2022-12-07T08:07:22;39.53;;;26.53;;
14191;SDS011;7177;48.572;7.838;2022-12-07T08:09:47;37.23;;;26.20;;
14191;SDS011;7177;48.572;7.838;2022-12-07T08:12:13;36.77;;;24.13;;
14191;SDS011;7177;48.572;7.838;2022-12-07T08:14:38;37.83;;;25.83;;
14191;SDS011;7177;48.572;7.838;2022-12-07T08:17:04;37.53;;;25.60;;
14191;SDS011;7177;48.572;7.838;2022-12-07T08:19:29;33.87;;;23.27;;
14191;SDS011;7177;48.572;7.838;2022-12-07T08:21:55;34.83;;;25.10;;
14191;SDS011;7177;48.572;7.838;2022-12-07T08:24:21;38.97;;;27.17;;
14191;SDS011;7177;48.572;7.838;2022-12-07T08:26:47;38.35;;;25.42;;
14191;SDS011;7177;48.572;7.838;2022-12-07T08:29:14;37.47;;;25.80;;
14191;SDS011;7177;48.572;7.838;2022-12-07T08:31:40;33.77;;;24.07;;
14191;SDS011;7177;48.572;7.838;2022-12-07T08:34:05;34.50;;;24.27;;
14191;SDS011;7177;48.572;7.838;2022-12-07T08:36:31;32.77;;;23.10;;
14191;SDS011;7177;48.572;7.838;2022-12-07T08:38:56;36.80;;;24.33;;
14191;SDS011;7177;48.572;7.838;2022-12-07T08:41:22;33.93;;;21.73;;
14191;SDS011;7177;48.572;7.838;2022-12-07T08:43:48;31.17;;;21.77;;
14191;SDS011;7177;48.572;7.838;2022-12-07T08:46:21;28.07;;;20.53;;
14191;SDS011;7177;48.572;7.838;2022-12-07T08:49:17;28.75;;;19.83;;
14191;SDS011;7177;48.572;7.838;2022-12-07T08:51:45;29.83;;;20.30;;
14191;SDS011;7177;48.572;7.838;2022-12-07T08:54:12;24.83;;;19.02;;
14191;SDS011;7177;48.572;7.838;2022-12-07T08:56:41;26.83;;;19.85;;
14191;SDS011;7177;48.572;7.838;2022-12-07T08:59:07;24.98;;;19.20;;
14191;SDS011;7177;48.572;7.838;2022-12-07T09:01:33;28.57;;;19.37;;
14191;SDS011;7177;48.572;7.838;2022-12-07T09:03:59;30.10;;;19.93;;
14191;SDS011;7177;48.572;7.838;2022-12-07T09:06:24;29.20;;;19.47;;
14191;SDS011;7177;48.572;7.838;2022-12-07T09:08:51;25.50;;;17.58;;
14191;SDS011;7177;48.572;7.838;2022-12-07T09:11:21;26.85;;;19.33;;
14191;SDS011;7177;48.572;7.838;2022-12-07T09:13:46;29.67;;;18.70;;
14191;SDS011;7177;48.572;7.838;2022-12-07T09:16:12;28.23;;;18.80;;
14191;SDS011;7177;48.572;7.838;2022-12-07T09:18:38;26.97;;;19.40;;
14191;SDS011;7177;48.572;7.838;2022-12-07T09:21:04;24.60;;;17.97;;
14191;SDS011;7177;48.572;7.838;2022-12-07T09:23:29;24.40;;;18.03;;
14191;SDS011;7177;48.572;7.838;2022-12-07T09:25:58;26.57;;;18.63;;
14191;SDS011;7177;48.572;7.838;2022-12-07T09:28:25;26.23;;;18.75;;
14191;SDS011;7177;48.572;7.838;2022-12-07T09:30:50;25.60;;;18.50;;
14191;SDS011;7177;48.572;7.838;2022-12-07T09:33:16;22.70;;;17.40;;
14191;SDS011;7177;48.572;7.838;2022-12-07T09:35:45;27.33;;;19.10;;
14191;SDS011;7177;48.572;7.838;2022-12-07T09:38:14;25.40;;;18.98;;
14191;SDS011;7177;48.572;7.838;2022-12-07T09:40:40;28.80;;;19.30;;
14191;SDS011;7177;48.572;7.838;2022-12-07T09:43:21;29.15;;;20.55;;
14191;SDS011;7177;48.572;7.838;2022-12-07T09:45:49;26.83;;;19.42;;
14191;SDS011;7177;48.572;7.838;2022-12-07T09:48:20;30.95;;;21.55;;
14191;SDS011;7177;48.572;7.838;2022-12-07T09:50:50;29.45;;;20.00;;
14191;SDS011;7177;48.572;7.838;2022-12-07T09:53:20;27.35;;;18.58;;
14191;SDS011;7177;48.572;7.838;2022-12-07T09:55:51;25.23;;;19.02;;
14191;SDS011;7177;48.572;7.838;2022-12-07T09:58:25;28.35;;;19.23;;
14191;SDS011;7177;48.572;7.838;2022-12-07T10:01:05;31.95;;;20.48;;
14191;SDS011;7177;48.572;7.838;2022-12-07T10:03:37;29.38;;;20.38;;
14191;SDS011;7177;48.572;7.838;2022-12-07T10:06:05;27.15;;;19.65;;
14191;SDS011;7177;48.572;7.838;2022-12-07T10:08:31;28.90;;;19.65;;
14191;SDS011;7177;48.572;7.838;2022-12-07T10:10:58;29.75;;;20.58;;
14191;SDS011;7177;48.572;7.838;2022-12-07T10:13:36;28.15;;;18.73;;
14191;SDS011;7177;48.572;7.838;2022-12-07T10:16:03;25.10;;;17.63;;
14191;SDS011;7177;48.572;7.838;2022-12-07T10:18:30;23.83;;;18.00;;
14191;SDS011;7177;48.572;7.838;2022-12-07T10:21:08;24.95;;;16.95;;
14191;SDS011;7177;48.572;7.838;2022-12-07T10:23:42;22.85;;;15.95;;
14191;SDS011;7177;48.572;7.838;2022-12-07T10:26:35;19.27;;;14.95;;
14191;SDS011;7177;48.572;7.838;2022-12-07T10:31:40;22.80;;;16.25;;
14191;SDS011;7177;48.572;7.838;2022-12-07T10:34:14;22.45;;;14.65;;
14191;SDS011;7177;48.572;7.838;2022-12-07T10:44:47;19.25;;;14.52;;
14191;SDS011;7177;48.572;7.838;2022-12-07T10:47:19;19.27;;;14.75;;
14191;SDS011;7177;48.572;7.838;2022-12-07T10:55:16;19.07;;;13.40;;
14191;SDS011;7177;48.572;7.838;2022-12-07T11:06:53;18.93;;;14.03;;
14191;SDS011;7177;48.572;7.838;2022-12-07T11:09:25;19.20;;;13.90;;
14191;SDS011;7177;48.572;7.838;2022-12-07T11:12:13;20.23;;;14.17;;
14191;SDS011;7177;48.572;7.838;2022-12-07T11:14:55;20.33;;;15.17;;
14191;SDS011;7177;48.572;7.838;2022-12-07T11:22:59;22.10;;;16.23;;
14191;SDS011;7177;48.572;7.838;2022-12-07T11:26:04;22.50;;;15.10;;
14191;SDS011;7177;48.572;7.838;2022-12-07T11:28:29;23.03;;;16.27;;
14191;SDS011;7177;48.572;7.838;2022-12-07T11:34:24;21.57;;;15.57;;
14191;SDS011;7177;48.572;7.838;2022-12-07T11:36:54;22.13;;;15.30;;
14191;SDS011;7177;48.572;7.838;2022-12-07T11:41:48;19.07;;;14.20;;
14191;SDS011;7177;48.572;7.838;2022-12-07T11:52:51;20.23;;;13.83;;
14191;SDS011;7177;48.572;7.838;2022-12-07T11:55:32;21.90;;;14.87;;
14191;SDS011;7177;48.572;7.838;2022-12-07T11:58:04;17.63;;;13.23;;
14191;SDS011;7177;48.572;7.838;2022-12-07T12:01:11;23.00;;;15.53;;
14191;SDS011;7177;48.572;7.838;2022-12-07T12:03:45;22.73;;;14.37;;
14191;SDS011;7177;48.572;7.838;2022-12-07T12:06:12;21.10;;;14.40;;
14191;SDS011;7177;48.572;7.838;2022-12-07T12:08:40;21.00;;;15.53;;
14191;SDS011;7177;48.572;7.838;2022-12-07T12:14:16;20.93;;;14.67;;
14191;SDS011;7177;48.572;7.838;2022-12-07T12:22:48;20.13;;;13.77;;
14191;SDS011;7177;48.572;7.838;2022-12-07T12:25:52;21.70;;;13.97;;
14191;SDS011;7177;48.572;7.838;2022-12-07T12:31:06;22.47;;;12.67;;
14191;SDS011;7177;48.572;7.838;2022-12-07T12:33:43;18.50;;;13.20;;
14191;SDS011;7177;48.572;7.838;2022-12-07T12:36:17;19.33;;;14.07;;
14191;SDS011;7177;48.572;7.838;2022-12-07T12:46:50;21.93;;;15.20;;
14191;SDS011;7177;48.572;7.838;2022-12-07T12:51:51;18.57;;;13.30;;
14191;SDS011;7177;48.572;7.838;2022-12-07T12:54:29;17.88;;;13.60;;
14191;SDS011;7177;48.572;7.838;2022-12-07T13:02:25;16.80;;;13.13;;
14191;SDS011;7177;48.572;7.838;2022-12-07T13:15:44;20.17;;;12.13;;
14191;SDS011;7177;48.572;7.838;2022-12-07T13:20:53;16.87;;;12.10;;
14191;SDS011;7177;48.572;7.838;2022-12-07T13:23:27;24.13;;;13.57;;
14191;SDS011;7177;48.572;7.838;2022-12-07T13:31:53;11.63;;;8.97;;
14191;SDS011;7177;48.572;7.838;2022-12-07T13:37:00;13.37;;;9.90;;
14191;SDS011;7177;48.572;7.838;2022-12-07T13:39:29;13.30;;;10.13;;
14191;SDS011;7177;48.572;7.838;2022-12-07T13:41:58;15.20;;;11.13;;
14191;SDS011;7177;48.572;7.838;2022-12-07T13:44:27;16.60;;;11.50;;
14191;SDS011;7177;48.572;7.838;2022-12-07T13:49:53;15.63;;;10.60;;
14191;SDS011;7177;48.572;7.838;2022-12-07T13:52:21;14.57;;;10.90;;
14191;SDS011;7177;48.572;7.838;2022-12-07T13:55:01;15.47;;;10.93;;
14191;SDS011;7177;48.572;7.838;2022-12-07T13:57:30;16.17;;;11.77;;
14191;SDS011;7177;48.572;7.838;2022-12-07T13:59:58;13.75;;;9.85;;
14191;SDS011;7177;48.572;7.838;2022-12-07T14:02:26;14.00;;;9.20;;
14191;SDS011;7177;48.572;7.838;2022-12-07T14:05:06;14.53;;;11.77;;
14191;SDS011;7177;48.572;7.838;2022-12-07T14:08:21;13.47;;;10.57;;
14191;SDS011;7177;48.572;7.838;2022-12-07T14:10:38;13.67;;;9.93;;
14191;SDS011;7177;48.572;7.838;2022-12-07T14:13:32;11.53;;;8.73;;
14191;SDS011;7177;48.572;7.838;2022-12-07T14:16:00;13.60;;;10.07;;
14191;SDS011;7177;48.572;7.838;2022-12-07T14:18:37;13.80;;;9.83;;
14191;SDS011;7177;48.572;7.838;2022-12-07T14:21:14;15.00;;;10.17;;
14191;SDS011;7177;48.572;7.838;2022-12-07T14:23:42;14.30;;;9.50;;
14191;SDS011;7177;48.572;7.838;2022-12-07T14:26:12;11.97;;;9.70;;
14191;SDS011;7177;48.572;7.838;2022-12-07T14:28:40;14.83;;;11.27;;
14191;SDS011;7177;48.572;7.838;2022-12-07T14:31:17;13.87;;;10.67;;
14191;SDS011;7177;48.572;7.838;2022-12-07T14:33:45;13.73;;;10.40;;
14191;SDS011;7177;48.572;7.838;2022-12-07T14:36:11;11.30;;;9.03;;
14191;SDS011;7177;48.572;7.838;2022-12-07T14:38:38;10.60;;;8.30;;
14191;SDS011;7177;48.572;7.838;2022-12-07T14:41:04;10.07;;;8.43;;
14191;SDS011;7177;48.572;7.838;2022-12-07T14:43:55;14.37;;;8.93;;
14191;SDS011;7177;48.572;7.838;2022-12-07T14:46:21;11.13;;;8.40;;
14191;SDS011;7177;48.572;7.838;2022-12-07T14:48:46;11.60;;;8.40;;
14191;SDS011;7177;48.572;7.838;2022-12-07T14:51:12;9.40;;;7.20;;
14191;SDS011;7177;48.572;7.838;2022-12-07T14:53:39;10.53;;;7.67;;
14191;SDS011;7177;48.572;7.838;2022-12-07T14:56:10;9.73;;;7.80;;
14191;SDS011;7177;48.572;7.838;2022-12-07T14:58:36;17.03;;;11.50;;
14191;SDS011;7177;48.572;7.838;2022-12-07T15:01:02;31.33;;;18.80;;
14191;SDS011;7177;48.572;7.838;2022-12-07T15:03:28;27.80;;;17.53;;
14191;SDS011;7177;48.572;7.838;2022-12-07T15:05:54;27.43;;;18.03;;
14191;SDS011;7177;48.572;7.838;2022-12-07T15:08:20;31.67;;;20.07;;
14191;SDS011;7177;48.572;7.838;2022-12-07T15:10:45;26.03;;;17.63;;
14191;SDS011;7177;48.572;7.838;2022-12-07T15:13:11;27.87;;;17.87;;
14191;SDS011;7177;48.572;7.838;2022-12-07T15:15:55;37.47;;;24.70;;
14191;SDS011;7177;48.572;7.838;2022-12-07T15:18:21;34.40;;;22.63;;
14191;SDS011;7177;48.572;7.838;2022-12-07T15:20:48;26.83;;;19.13;;
14191;SDS011;7177;48.572;7.838;2022-12-07T15:23:14;31.00;;;21.27;;
14191;SDS011;7177;48.572;7.838;2022-12-07T15:25:40;31.77;;;20.70;;
14191;SDS011;7177;48.572;7.838;2022-12-07T15:28:07;37.27;;;22.20;;
14191;SDS011;7177;48.572;7.838;2022-12-07T15:30:32;38.33;;;23.93;;
14191;SDS011;7177;48.572;7.838;2022-12-07T15:32:58;34.77;;;21.33;;
14191;SDS011;7177;48.572;7.838;2022-12-07T15:35:23;28.67;;;18.37;;
14191;SDS011;7177;48.572;7.838;2022-12-07T15:37:49;32.07;;;20.07;;
14191;SDS011;7177;48.572;7.838;2022-12-07T15:40:14;30.23;;;19.83;;
14191;SDS011;7177;48.572;7.838;2022-12-07T15:42:40;33.83;;;20.53;;
14191;SDS011;7177;48.572;7.838;2022-12-07T15:45:06;27.63;;;18.53;;
14191;SDS011;7177;48.572;7.838;2022-12-07T15:47:36;23.20;;;16.10;;
14191;SDS011;7177;48.572;7.838;2022-12-07T15:50:05;19.23;;;14.10;;
14191;SDS011;7177;48.572;7.838;2022-12-07T15:52:32;19.67;;;13.97;;
14191;SDS011;7177;48.572;7.838;2022-12-07T15:54:58;20.67;;;14.60;;
14191;SDS011;7177;48.572;7.838;2022-12-07T15:57:25;22.48;;;14.70;;
14191;SDS011;7177;48.572;7.838;2022-12-07T15:59:51;19.23;;;14.30;;
14191;SDS011;7177;48.572;7.838;2022-12-07T16:02:17;21.00;;;15.13;;
14191;SDS011;7177;48.572;7.838;2022-12-07T16:04:42;20.47;;;15.77;;
14191;SDS011;7177;48.572;7.838;2022-12-07T16:07:08;22.97;;;17.50;;
14191;SDS011;7177;48.572;7.838;2022-12-07T16:09:36;22.65;;;16.60;;
14191;SDS011;7177;48.572;7.838;2022-12-07T16:12:02;22.30;;;15.68;;
14191;SDS011;7177;48.572;7.838;2022-12-07T16:14:28;21.80;;;16.30;;
14191;SDS011;7177;48.572;7.838;2022-12-07T16:16:54;23.23;;;17.10;;
14191;SDS011;7177;48.572;7.838;2022-12-07T16:19:20;26.03;;;17.87;;
14191;SDS011;7177;48.572;7.838;2022-12-07T16:21:46;25.50;;;17.92;;
14191;SDS011;7177;48.572;7.838;2022-12-07T16:24:11;23.97;;;17.77;;
14191;SDS011;7177;48.572;7.838;2022-12-07T16:26:39;28.80;;;18.80;;
14191;SDS011;7177;48.572;7.838;2022-12-07T16:29:05;43.00;;;27.93;;
14191;SDS011;7177;48.572;7.838;2022-12-07T16:31:31;45.77;;;29.67;;
14191;SDS011;7177;48.572;7.838;2022-12-07T16:33:57;30.13;;;19.93;;
14191;SDS011;7177;48.572;7.838;2022-12-07T16:36:23;24.50;;;18.63;;
14191;SDS011;7177;48.572;7.838;2022-12-07T16:38:50;26.38;;;19.42;;
14191;SDS011;7177;48.572;7.838;2022-12-07T16:41:17;25.05;;;17.13;;
14191;SDS011;7177;48.572;7.838;2022-12-07T16:43:42;24.10;;;16.50;;
14191;SDS011;7177;48.572;7.838;2022-12-07T16:46:08;20.13;;;15.03;;